sensor_id;sensor_type;location;lat;lon;timestamp;pressure;altitude;pressure_sealevel;temperature;humidity
72124;BME280;63818;37.134;-8.548;2023-06-10T00:00:50;101224.4;;;22.4;77.3
72124;BME280;63818;37.134;-8.548;2023-06-10T00:05:36;101216.9;;;22.3;77.8
72124;BME280;63818;37.134;-8.548;2023-06-10T00:10:22;101221.7;;;22.4;77.5
72124;BME280;63818;37.134;-8.548;2023-06-10T00:15:09;101226.4;;;22.4;77.5
72124;BME280;63818;37.134;-8.548;2023-06-10T00:19:55;101213.1;;;22.3;77.4
72124;BME280;63818;37.134;-8.548;2023-06-10T00:24:41;101201.4;;;22.4;77.7
72124;BME280;63818;37.134;-8.548;2023-06-10T00:29:27;101203.7;;;22.4;77.7
72124;BME280;63818;37.134;-8.548;2023-06-10T00:34:14;101208.4;;;22.4;77.2
72124;BME280;63818;37.134;-8.548;2023-06-10T00:39:00;101205.7;;;22.4;77.1
72124;BME280;63818;37.134;-8.548;2023-06-10T00:43:46;101219.0;;;22.4;77.2
72124;BME280;63818;37.134;-8.548;2023-06-10T00:48:33;101215.1;;;22.4;77.3
72124;BME280;63818;37.134;-8.548;2023-06-10T00:53:19;101217.8;;;22.4;77.2
72124;BME280;63818;37.134;-8.548;2023-06-10T00:58:07;101209.9;;;22.4;77.4
72124;BME280;63818;37.134;-8.548;2023-06-10T01:02:53;101206.0;;;22.4;77.2
72124;BME280;63818;37.134;-8.548;2023-06-10T01:07:43;101196.2;;;22.3;77.2
72124;BME280;63818;37.134;-8.548;2023-06-10T01:12:36;101204.3;;;22.2;77.2
72124;BME280;63818;37.134;-8.548;2023-06-10T01:17:24;101195.0;;;22.2;77.7
72124;BME280;63818;37.134;-8.548;2023-06-10T01:22:10;101189.9;;;22.2;77.6
72124;BME280;63818;37.134;-8.548;2023-06-10T01:26:58;101193.4;;;22.2;77.9
72124;BME280;63818;37.134;-8.548;2023-06-10T01:31:49;101186.3;;;22.2;77.6
72124;BME280;63818;37.134;-8.548;2023-06-10T01:36:38;101191.0;;;22.2;77.6
72124;BME280;63818;37.134;-8.548;2023-06-10T01:41:26;101182.0;;;22.2;77.9
72124;BME280;63818;37.134;-8.548;2023-06-10T01:46:12;101179.6;;;22.1;77.7
72124;BME280;63818;37.134;-8.548;2023-06-10T01:50:58;101188.2;;;22.1;77.3
72124;BME280;63818;37.134;-8.548;2023-06-10T01:55:44;101179.5;;;22.0;77.4
72124;BME280;63818;37.134;-8.548;2023-06-10T02:00:30;101177.6;;;22.0;77.2
72124;BME280;63818;37.134;-8.548;2023-06-10T02:05:16;101179.9;;;22.1;77.1
72124;BME280;63818;37.134;-8.548;2023-06-10T02:10:03;101186.5;;;22.0;77.1
72124;BME280;63818;37.134;-8.548;2023-06-10T02:14:48;101183.4;;;22.1;77.2
72124;BME280;63818;37.134;-8.548;2023-06-10T02:19:34;101192.4;;;22.0;77.3
72124;BME280;63818;37.134;-8.548;2023-06-10T02:24:21;101193.2;;;22.0;77.2
72124;BME280;63818;37.134;-8.548;2023-06-10T02:29:07;101188.3;;;21.9;77.3
72124;BME280;63818;37.134;-8.548;2023-06-10T02:33:55;101184.5;;;22.0;77.2
72124;BME280;63818;37.134;-8.548;2023-06-10T02:38:41;101186.9;;;22.0;77.3
72124;BME280;63818;37.134;-8.548;2023-06-10T02:43:27;101185.3;;;22.0;77.3
72124;BME280;63818;37.134;-8.548;2023-06-10T02:48:13;101190.0;;;22.0;77.3
72124;BME280;63818;37.134;-8.548;2023-06-10T02:52:59;101190.0;;;22.0;76.9
72124;BME280;63818;37.134;-8.548;2023-06-10T02:57:47;101186.1;;;22.0;77.0
72124;BME280;63818;37.134;-8.548;2023-06-10T03:02:33;101200.5;;;22.0;76.9
72124;BME280;63818;37.134;-8.548;2023-06-10T03:07:19;101186.1;;;22.0;77.0
72124;BME280;63818;37.134;-8.548;2023-06-10T03:12:05;101190.0;;;22.0;77.0
72124;BME280;63818;37.134;-8.548;2023-06-10T03:16:51;101190.0;;;22.0;77.1
72124;BME280;63818;37.134;-8.548;2023-06-10T03:21:38;101187.2;;;22.0;76.9
72124;BME280;63818;37.134;-8.548;2023-06-10T03:26:24;101191.5;;;22.0;76.7
72124;BME280;63818;37.134;-8.548;2023-06-10T03:31:10;101191.5;;;22.0;76.9
72124;BME280;63818;37.134;-8.548;2023-06-10T03:35:56;101188.7;;;21.9;77.0
72124;BME280;63818;37.134;-8.548;2023-06-10T03:40:44;101209.0;;;21.9;76.8
72124;BME280;63818;37.134;-8.548;2023-06-10T03:45:31;101207.0;;;21.9;76.7
72124;BME280;63818;37.134;-8.548;2023-06-10T03:50:16;101212.9;;;21.9;76.4
72124;BME280;63818;37.134;-8.548;2023-06-10T03:55:02;101201.5;;;21.8;76.1
72124;BME280;63818;37.134;-8.548;2023-06-10T03:59:48;101204.6;;;21.8;75.8
72124;BME280;63818;37.134;-8.548;2023-06-10T04:04:36;101212.8;;;21.8;75.8
72124;BME280;63818;37.134;-8.548;2023-06-10T04:09:22;101203.5;;;21.9;75.8
72124;BME280;63818;37.134;-8.548;2023-06-10T04:14:08;101216.0;;;21.9;75.7
72124;BME280;63818;37.134;-8.548;2023-06-10T04:18:54;101209.0;;;21.9;75.7
72124;BME280;63818;37.134;-8.548;2023-06-10T04:23:42;101212.9;;;21.9;75.8
72124;BME280;63818;37.134;-8.548;2023-06-10T04:28:28;101205.1;;;21.9;75.4
72124;BME280;63818;37.134;-8.548;2023-06-10T04:33:14;101201.5;;;21.8;75.5
72124;BME280;63818;37.134;-8.548;2023-06-10T04:38:00;101198.4;;;21.9;75.5
72124;BME280;63818;37.134;-8.548;2023-06-10T04:42:46;101190.6;;;21.8;74.6
72124;BME280;63818;37.134;-8.548;2023-06-10T04:47:31;101200.3;;;21.8;74.4
72124;BME280;63818;37.134;-8.548;2023-06-10T04:52:17;101205.0;;;21.8;74.2
72124;BME280;63818;37.134;-8.548;2023-06-10T04:57:04;101200.3;;;21.8;74.1
72124;BME280;63818;37.134;-8.548;2023-06-10T05:01:50;101217.0;;;21.8;74.2
72124;BME280;63818;37.134;-8.548;2023-06-10T05:06:36;101208.4;;;21.8;74.0
72124;BME280;63818;37.134;-8.548;2023-06-10T05:11:22;101217.8;;;21.7;74.0
72124;BME280;63818;37.134;-8.548;2023-06-10T05:16:10;101207.6;;;21.7;74.1
72124;BME280;63818;37.134;-8.548;2023-06-10T05:20:56;101217.4;;;21.7;74.4
72124;BME280;63818;37.134;-8.548;2023-06-10T05:25:42;101223.6;;;21.7;74.6
72124;BME280;63818;37.134;-8.548;2023-06-10T05:30:28;101224.0;;;21.7;74.8
72124;BME280;63818;37.134;-8.548;2023-06-10T05:35:15;101232.2;;;21.7;74.7
72124;BME280;63818;37.134;-8.548;2023-06-10T05:40:00;101236.1;;;21.7;74.8
72124;BME280;63818;37.134;-8.548;2023-06-10T05:44:46;101226.7;;;21.7;75.1
72124;BME280;63818;37.134;-8.548;2023-06-10T05:49:33;101237.7;;;21.7;75.2
72124;BME280;63818;37.134;-8.548;2023-06-10T05:54:19;101240.0;;;21.7;75.0
72124;BME280;63818;37.134;-8.548;2023-06-10T05:59:05;101236.5;;;21.7;75.2
72124;BME280;63818;37.134;-8.548;2023-06-10T06:03:51;101243.9;;;21.7;75.3
72124;BME280;63818;37.134;-8.548;2023-06-10T06:08:37;101242.0;;;21.7;75.4
72124;BME280;63818;37.134;-8.548;2023-06-10T06:13:23;101248.2;;;21.7;75.8
72124;BME280;63818;37.134;-8.548;2023-06-10T06:18:11;101250.5;;;21.7;75.7
72124;BME280;63818;37.134;-8.548;2023-06-10T06:22:57;101262.7;;;21.7;76.1
72124;BME280;63818;37.134;-8.548;2023-06-10T06:27:43;101260.8;;;21.7;76.1
72124;BME280;63818;37.134;-8.548;2023-06-10T06:32:31;101264.7;;;21.8;76.1
72124;BME280;63818;37.134;-8.548;2023-06-10T06:37:17;101272.9;;;21.8;76.0
72124;BME280;63818;37.134;-8.548;2023-06-10T06:42:04;101275.7;;;21.8;76.1
72124;BME280;63818;37.134;-8.548;2023-06-10T06:46:50;101280.3;;;21.8;76.0
72124;BME280;63818;37.134;-8.548;2023-06-10T06:51:36;101280.0;;;21.8;76.3
72124;BME280;63818;37.134;-8.548;2023-06-10T06:56:22;101287.8;;;21.8;76.3
72124;BME280;63818;37.134;-8.548;2023-06-10T07:01:08;101286.6;;;21.8;76.0
72124;BME280;63818;37.134;-8.548;2023-06-10T07:05:54;101292.5;;;21.8;75.6
72124;BME280;63818;37.134;-8.548;2023-06-10T07:10:40;101291.0;;;21.8;75.8
72124;BME280;63818;37.134;-8.548;2023-06-10T07:15:26;101303.5;;;21.9;76.2
72124;BME280;63818;37.134;-8.548;2023-06-10T07:20:12;101294.2;;;21.9;75.7
72124;BME280;63818;37.134;-8.548;2023-06-10T07:24:58;101299.6;;;21.9;75.7
72124;BME280;63818;37.134;-8.548;2023-06-10T07:29:44;101300.8;;;21.9;75.8
72124;BME280;63818;37.134;-8.548;2023-06-10T07:34:30;101304.4;;;21.9;75.4
72124;BME280;63818;37.134;-8.548;2023-06-10T07:39:16;101308.7;;;21.9;75.5
72124;BME280;63818;37.134;-8.548;2023-06-10T07:44:04;101308.4;;;22.0;75.0
72124;BME280;63818;37.134;-8.548;2023-06-10T07:48:50;101306.4;;;22.0;74.7
72124;BME280;63818;37.134;-8.548;2023-06-10T07:53:36;101296.3;;;22.0;74.3
72124;BME280;63818;37.134;-8.548;2023-06-10T07:58:22;101294.3;;;22.0;74.2
72124;BME280;63818;37.134;-8.548;2023-06-10T08:03:11;101297.2;;;22.0;74.4
72124;BME280;63818;37.134;-8.548;2023-06-10T08:07:57;101291.0;;;22.1;73.7
72124;BME280;63818;37.134;-8.548;2023-06-10T08:12:44;101301.5;;;22.1;73.9
72124;BME280;63818;37.134;-8.548;2023-06-10T08:17:30;101291.0;;;22.1;73.5
72124;BME280;63818;37.134;-8.548;2023-06-10T08:22:15;101305.9;;;22.1;73.3
72124;BME280;63818;37.134;-8.548;2023-06-10T08:27:02;101305.5;;;22.1;72.7
72124;BME280;63818;37.134;-8.548;2023-06-10T08:31:48;101309.8;;;22.1;72.4
72124;BME280;63818;37.134;-8.548;2023-06-10T08:36:33;101315.7;;;22.2;71.9
72124;BME280;63818;37.134;-8.548;2023-06-10T08:41:21;101314.6;;;22.2;71.8
72124;BME280;63818;37.134;-8.548;2023-06-10T08:46:09;101315.2;;;22.1;72.1
72124;BME280;63818;37.134;-8.548;2023-06-10T08:50:56;101319.5;;;22.1;71.6
72124;BME280;63818;37.134;-8.548;2023-06-10T08:55:44;101319.4;;;22.0;71.4
72124;BME280;63818;37.134;-8.548;2023-06-10T09:00:33;101317.8;;;22.0;70.9
72124;BME280;63818;37.134;-8.548;2023-06-10T09:05:20;101319.1;;;22.0;71.4
72124;BME280;63818;37.134;-8.548;2023-06-10T09:10:06;101320.6;;;22.0;70.9
72124;BME280;63818;37.134;-8.548;2023-06-10T09:14:52;101331.2;;;22.1;70.6
72124;BME280;63818;37.134;-8.548;2023-06-10T09:19:40;101317.5;;;22.1;70.4
72124;BME280;63818;37.134;-8.548;2023-06-10T09:24:30;101323.0;;;22.1;70.2
72124;BME280;63818;37.134;-8.548;2023-06-10T09:29:17;101323.1;;;22.1;70.7
72124;BME280;63818;37.134;-8.548;2023-06-10T09:34:10;101316.8;;;22.1;70.3
72124;BME280;63818;37.134;-8.548;2023-06-10T09:38:56;101314.5;;;22.1;70.3
72124;BME280;63818;37.134;-8.548;2023-06-10T09:43:44;101317.2;;;22.1;70.2
72124;BME280;63818;37.134;-8.548;2023-06-10T09:48:34;101322.7;;;22.1;70.6
72124;BME280;63818;37.134;-8.548;2023-06-10T09:53:20;101327.0;;;22.1;70.2
72124;BME280;63818;37.134;-8.548;2023-06-10T09:58:07;101337.0;;;22.0;70.5
72124;BME280;63818;37.134;-8.548;2023-06-10T10:02:55;101339.0;;;22.0;70.4
72124;BME280;63818;37.134;-8.548;2023-06-10T10:07:41;101340.2;;;22.0;70.9
72124;BME280;63818;37.134;-8.548;2023-06-10T10:12:29;101331.2;;;22.1;71.2
72124;BME280;63818;37.134;-8.548;2023-06-10T10:17:16;101328.1;;;22.1;71.1
72124;BME280;63818;37.134;-8.548;2023-06-10T10:22:06;101328.9;;;22.1;71.7
72124;BME280;63818;37.134;-8.548;2023-06-10T10:26:55;101332.9;;;22.1;71.7
72124;BME280;63818;37.134;-8.548;2023-06-10T10:31:44;101324.2;;;22.1;71.4
72124;BME280;63818;37.134;-8.548;2023-06-10T10:36:32;101323.9;;;22.1;71.0
72124;BME280;63818;37.134;-8.548;2023-06-10T10:41:19;101340.3;;;22.1;71.1
72124;BME280;63818;37.134;-8.548;2023-06-10T10:46:11;101330.5;;;22.1;71.3
72124;BME280;63818;37.134;-8.548;2023-06-10T10:51:00;101314.9;;;22.1;71.1
72124;BME280;63818;37.134;-8.548;2023-06-10T10:56:01;101322.2;;;22.0;69.8
72124;BME280;63818;37.134;-8.548;2023-06-10T11:00:51;101305.4;;;22.0;69.9
72124;BME280;63818;37.134;-8.548;2023-06-10T11:05:39;101312.8;;;22.1;70.6
72124;BME280;63818;37.134;-8.548;2023-06-10T11:10:31;101299.2;;;22.1;71.9
72124;BME280;63818;37.134;-8.548;2023-06-10T11:15:22;101303.9;;;22.1;72.6
72124;BME280;63818;37.134;-8.548;2023-06-10T11:20:10;101297.6;;;22.1;72.6
72124;BME280;63818;37.134;-8.548;2023-06-10T11:24:56;101298.4;;;22.1;72.8
72124;BME280;63818;37.134;-8.548;2023-06-10T11:30:17;101300.0;;;22.1;73.1
72124;BME280;63818;37.134;-8.548;2023-06-10T11:35:02;101292.1;;;22.0;73.4
72124;BME280;63818;37.134;-8.548;2023-06-10T11:39:51;101284.3;;;22.0;73.6
72124;BME280;63818;37.134;-8.548;2023-06-10T11:44:37;101283.1;;;22.0;73.8
72124;BME280;63818;37.134;-8.548;2023-06-10T11:49:23;101279.5;;;22.0;73.9
72124;BME280;63818;37.134;-8.548;2023-06-10T11:54:10;101281.5;;;22.0;74.5
72124;BME280;63818;37.134;-8.548;2023-06-10T11:58:57;101289.7;;;22.0;74.9
72124;BME280;63818;37.134;-8.548;2023-06-10T12:03:44;101297.6;;;22.1;75.3
72124;BME280;63818;37.134;-8.548;2023-06-10T12:08:30;101300.0;;;22.1;75.7
72124;BME280;63818;37.134;-8.548;2023-06-10T12:13:17;101314.0;;;22.1;76.1
72124;BME280;63818;37.134;-8.548;2023-06-10T12:18:03;101309.0;;;22.1;76.2
72124;BME280;63818;37.134;-8.548;2023-06-10T12:22:50;101309.4;;;22.1;76.6
72124;BME280;63818;37.134;-8.548;2023-06-10T12:27:36;101311.7;;;22.1;76.8
72124;BME280;63818;37.134;-8.548;2023-06-10T12:32:39;101312.1;;;22.1;76.7
72124;BME280;63818;37.134;-8.548;2023-06-10T12:37:25;101300.1;;;22.2;76.8
72124;BME280;63818;37.134;-8.548;2023-06-10T12:42:12;101305.2;;;22.2;77.1
72124;BME280;63818;37.134;-8.548;2023-06-10T12:46:58;101299.6;;;22.1;76.8
72124;BME280;63818;37.134;-8.548;2023-06-10T12:51:44;101285.9;;;22.1;77.0
72124;BME280;63818;37.134;-8.548;2023-06-10T12:56:30;101288.3;;;22.1;76.6
72124;BME280;63818;37.134;-8.548;2023-06-10T13:01:16;101295.8;;;22.2;76.2
72124;BME280;63818;37.134;-8.548;2023-06-10T13:06:02;101309.9;;;22.2;75.8
72124;BME280;63818;37.134;-8.548;2023-06-10T13:10:48;101298.2;;;22.2;75.4
72124;BME280;63818;37.134;-8.548;2023-06-10T13:15:35;101315.8;;;22.2;75.4
72124;BME280;63818;37.134;-8.548;2023-06-10T13:20:21;101309.2;;;22.3;75.6
72124;BME280;63818;37.134;-8.548;2023-06-10T13:25:10;101294.8;;;22.3;75.5
72124;BME280;63818;37.134;-8.548;2023-06-10T13:29:56;101293.2;;;22.3;75.4
72124;BME280;63818;37.134;-8.548;2023-06-10T13:34:44;101285.8;;;22.3;74.9
72124;BME280;63818;37.134;-8.548;2023-06-10T13:39:30;101284.2;;;22.3;74.3
72124;BME280;63818;37.134;-8.548;2023-06-10T13:44:16;101280.3;;;22.3;74.3
72124;BME280;63818;37.134;-8.548;2023-06-10T13:49:02;101281.8;;;22.3;73.8
72124;BME280;63818;37.134;-8.548;2023-06-10T13:53:48;101263.4;;;22.3;73.7
72124;BME280;63818;37.134;-8.548;2023-06-10T13:58:34;101274.5;;;22.3;73.5
72124;BME280;63818;37.134;-8.548;2023-06-10T14:03:20;101268.2;;;22.4;73.4
72124;BME280;63818;37.134;-8.548;2023-06-10T14:08:06;101280.8;;;22.4;74.0
72124;BME280;63818;37.134;-8.548;2023-06-10T14:12:52;101280.9;;;22.4;74.1
72124;BME280;63818;37.134;-8.548;2023-06-10T14:17:38;101266.8;;;22.5;73.4
72124;BME280;63818;37.134;-8.548;2023-06-10T14:22:24;101266.4;;;22.5;72.9
72124;BME280;63818;37.134;-8.548;2023-06-10T14:27:12;101266.9;;;22.5;72.5
72124;BME280;63818;37.134;-8.548;2023-06-10T14:31:58;101272.3;;;22.5;72.2
72124;BME280;63818;37.134;-8.548;2023-06-10T14:36:46;101266.5;;;22.5;72.8
72124;BME280;63818;37.134;-8.548;2023-06-10T14:41:32;101264.2;;;22.6;73.2
72124;BME280;63818;37.134;-8.548;2023-06-10T14:46:18;101265.8;;;22.6;73.5
72124;BME280;63818;37.134;-8.548;2023-06-10T14:51:05;101258.8;;;22.6;73.5
72124;BME280;63818;37.134;-8.548;2023-06-10T14:55:51;101261.5;;;22.7;73.4
72124;BME280;63818;37.134;-8.548;2023-06-10T15:00:37;101259.2;;;22.7;73.4
72124;BME280;63818;37.134;-8.548;2023-06-10T15:05:23;101252.2;;;22.7;73.1
72124;BME280;63818;37.134;-8.548;2023-06-10T15:10:12;101247.5;;;22.7;71.3
72124;BME280;63818;37.134;-8.548;2023-06-10T15:14:58;101249.8;;;22.7;71.2
72124;BME280;63818;37.134;-8.548;2023-06-10T15:19:43;101234.3;;;22.8;70.9
72124;BME280;63818;37.134;-8.548;2023-06-10T15:24:29;101237.5;;;22.9;69.9
72124;BME280;63818;37.134;-8.548;2023-06-10T15:29:16;101232.0;;;22.9;68.9
72124;BME280;63818;37.134;-8.548;2023-06-10T15:34:02;101227.4;;;22.9;69.2
72124;BME280;63818;37.134;-8.548;2023-06-10T15:38:50;101234.1;;;23.0;69.1
72124;BME280;63818;37.134;-8.548;2023-06-10T15:43:37;101238.5;;;23.1;69.0
72124;BME280;63818;37.134;-8.548;2023-06-10T15:48:22;101222.9;;;23.2;69.0
72124;BME280;63818;37.134;-8.548;2023-06-10T15:53:08;101237.8;;;23.3;69.2
72124;BME280;63818;37.134;-8.548;2023-06-10T15:57:57;101236.3;;;23.3;69.5
72124;BME280;63818;37.134;-8.548;2023-06-10T16:02:43;101246.9;;;23.4;69.3
72124;BME280;63818;37.134;-8.548;2023-06-10T16:07:29;101238.3;;;23.5;69.5
72124;BME280;63818;37.134;-8.548;2023-06-10T16:12:15;101233.7;;;23.5;69.5
72124;BME280;63818;37.134;-8.548;2023-06-10T16:17:04;101223.6;;;23.6;69.7
72124;BME280;63818;37.134;-8.548;2023-06-10T16:21:50;101227.1;;;23.6;69.7
72124;BME280;63818;37.134;-8.548;2023-06-10T16:26:36;101219.2;;;23.5;69.4
72124;BME280;63818;37.134;-8.548;2023-06-10T16:31:22;101208.1;;;23.4;69.1
72124;BME280;63818;37.134;-8.548;2023-06-10T16:36:08;101233.7;;;23.5;68.7
72124;BME280;63818;37.134;-8.548;2023-06-10T16:40:54;101224.7;;;23.5;62.7
72124;BME280;63818;37.134;-8.548;2023-06-10T16:45:40;101180.4;;;23.5;60.8
72124;BME280;63818;37.134;-8.548;2023-06-10T16:50:26;101175.7;;;23.5;59.4
72124;BME280;63818;37.134;-8.548;2023-06-10T16:55:13;101201.6;;;23.6;58.4
72124;BME280;63818;37.134;-8.548;2023-06-10T16:59:58;101184.4;;;23.6;57.8
72124;BME280;63818;37.134;-8.548;2023-06-10T17:04:44;101185.6;;;23.6;57.0
72124;BME280;63818;37.134;-8.548;2023-06-10T17:09:31;101185.6;;;23.6;56.3
72124;BME280;63818;37.134;-8.548;2023-06-10T17:14:16;101175.4;;;23.6;57.4
72124;BME280;63818;37.134;-8.548;2023-06-10T17:19:02;101197.7;;;23.6;58.5
72124;BME280;63818;37.134;-8.548;2023-06-10T17:23:48;101193.0;;;23.6;58.5
72124;BME280;63818;37.134;-8.548;2023-06-10T17:28:34;101189.1;;;23.6;57.9
72124;BME280;63818;37.134;-8.548;2023-06-10T17:33:20;101182.8;;;23.6;58.1
72124;BME280;63818;37.134;-8.548;2023-06-10T17:38:06;101173.4;;;23.6;57.7
72124;BME280;63818;37.134;-8.548;2023-06-10T17:42:52;101173.3;;;23.5;57.4
72124;BME280;63818;37.134;-8.548;2023-06-10T17:47:38;101158.8;;;23.5;57.2
72124;BME280;63818;37.134;-8.548;2023-06-10T17:52:25;101171.4;;;23.5;56.9
72124;BME280;63818;37.134;-8.548;2023-06-10T17:57:11;101173.0;;;23.5;56.7
72124;BME280;63818;37.134;-8.548;2023-06-10T18:01:57;101165.6;;;23.6;55.8
72124;BME280;63818;37.134;-8.548;2023-06-10T18:06:43;101154.2;;;23.6;55.3
72124;BME280;63818;37.134;-8.548;2023-06-10T18:11:29;101171.1;;;23.7;55.1
72124;BME280;63818;37.134;-8.548;2023-06-10T18:16:15;101171.5;;;23.7;54.8
72124;BME280;63818;37.134;-8.548;2023-06-10T18:21:01;101171.5;;;23.7;53.9
72124;BME280;63818;37.134;-8.548;2023-06-10T18:25:47;101190.3;;;23.7;53.7
72124;BME280;63818;37.134;-8.548;2023-06-10T18:30:33;101167.9;;;23.7;53.6
72124;BME280;63818;37.134;-8.548;2023-06-10T18:35:23;101175.0;;;23.7;54.1
72124;BME280;63818;37.134;-8.548;2023-06-10T18:40:11;101188.7;;;23.7;54.2
72124;BME280;63818;37.134;-8.548;2023-06-10T18:44:57;101191.5;;;23.7;53.9
72124;BME280;63818;37.134;-8.548;2023-06-10T18:49:43;101212.2;;;23.6;52.7
72124;BME280;63818;37.134;-8.548;2023-06-10T18:54:29;101196.9;;;23.5;52.4
72124;BME280;63818;37.134;-8.548;2023-06-10T18:59:15;101201.2;;;23.5;53.2
72124;BME280;63818;37.134;-8.548;2023-06-10T19:04:01;101211.8;;;23.6;54.8
72124;BME280;63818;37.134;-8.548;2023-06-10T19:08:47;101216.9;;;23.5;56.2
72124;BME280;63818;37.134;-8.548;2023-06-10T19:13:33;101209.0;;;23.5;56.5
72124;BME280;63818;37.134;-8.548;2023-06-10T19:18:19;101213.7;;;23.5;56.7
72124;BME280;63818;37.134;-8.548;2023-06-10T19:23:05;101215.6;;;23.4;56.9
72124;BME280;63818;37.134;-8.548;2023-06-10T19:27:51;101221.0;;;23.3;57.3
72124;BME280;63818;37.134;-8.548;2023-06-10T19:32:40;101220.2;;;23.3;58.0
72124;BME280;63818;37.134;-8.548;2023-06-10T19:37:26;101219.0;;;23.3;58.7
72124;BME280;63818;37.134;-8.548;2023-06-10T19:42:12;101229.2;;;23.3;59.6
72124;BME280;63818;37.134;-8.548;2023-06-10T19:47:02;101228.0;;;23.2;60.4
72124;BME280;63818;37.134;-8.548;2023-06-10T19:51:48;101228.4;;;23.2;60.7
72124;BME280;63818;37.134;-8.548;2023-06-10T19:56:36;101233.0;;;23.1;61.0
72124;BME280;63818;37.134;-8.548;2023-06-10T20:01:24;101253.0;;;23.1;61.6
72124;BME280;63818;37.134;-8.548;2023-06-10T20:06:10;101252.5;;;23.1;62.3
72124;BME280;63818;37.134;-8.548;2023-06-10T20:10:56;101256.8;;;23.0;62.7
72124;BME280;63818;37.134;-8.548;2023-06-10T20:15:43;101277.5;;;23.0;63.4
72124;BME280;63818;37.134;-8.548;2023-06-10T20:20:29;101277.5;;;23.0;63.7
72124;BME280;63818;37.134;-8.548;2023-06-10T20:25:15;101284.2;;;22.9;64.0
72124;BME280;63818;37.134;-8.548;2023-06-10T20:30:01;101286.8;;;22.8;65.0
72124;BME280;63818;37.134;-8.548;2023-06-10T20:34:47;101297.0;;;22.9;65.2
72124;BME280;63818;37.134;-8.548;2023-06-10T20:39:33;101307.1;;;22.8;65.6
72124;BME280;63818;37.134;-8.548;2023-06-10T20:44:19;101316.8;;;22.7;66.2
72124;BME280;63818;37.134;-8.548;2023-06-10T20:49:05;101320.7;;;22.7;66.6
72124;BME280;63818;37.134;-8.548;2023-06-10T20:53:51;101322.1;;;22.6;67.4
72124;BME280;63818;37.134;-8.548;2023-06-10T20:58:37;101323.0;;;22.7;67.3
72124;BME280;63818;37.134;-8.548;2023-06-10T21:03:23;101332.3;;;22.6;67.7
72124;BME280;63818;37.134;-8.548;2023-06-10T21:08:08;101340.1;;;22.6;67.9
72124;BME280;63818;37.134;-8.548;2023-06-10T21:12:54;101336.5;;;22.5;68.3
72124;BME280;63818;37.134;-8.548;2023-06-10T21:17:40;101340.3;;;22.5;68.5
72124;BME280;63818;37.134;-8.548;2023-06-10T21:22:26;101346.6;;;22.4;68.5
72124;BME280;63818;37.134;-8.548;2023-06-10T21:27:13;101328.9;;;22.4;68.7
72124;BME280;63818;37.134;-8.548;2023-06-10T21:31:58;101334.8;;;22.4;68.9
72124;BME280;63818;37.134;-8.548;2023-06-10T21:36:45;101335.2;;;22.4;68.5
72124;BME280;63818;37.134;-8.548;2023-06-10T21:41:31;101329.2;;;22.3;68.6
72124;BME280;63818;37.134;-8.548;2023-06-10T21:46:17;101335.9;;;22.4;68.9
72124;BME280;63818;37.134;-8.548;2023-06-10T21:51:03;101338.2;;;22.3;69.1
72124;BME280;63818;37.134;-8.548;2023-06-10T21:55:49;101338.2;;;22.3;69.1
72124;BME280;63818;37.134;-8.548;2023-06-10T22:00:35;101329.9;;;22.3;69.2
72124;BME280;63818;37.134;-8.548;2023-06-10T22:05:21;101334.1;;;22.2;69.5
72124;BME280;63818;37.134;-8.548;2023-06-10T22:10:10;101340.8;;;22.2;70.1
72124;BME280;63818;37.134;-8.548;2023-06-10T22:14:56;101339.3;;;22.2;69.8
72124;BME280;63818;37.134;-8.548;2023-06-10T22:19:42;101344.3;;;22.2;70.0
72124;BME280;63818;37.134;-8.548;2023-06-10T22:24:28;101345.1;;;22.2;70.2
72124;BME280;63818;37.134;-8.548;2023-06-10T22:29:14;101351.0;;;22.2;70.2
72124;BME280;63818;37.134;-8.548;2023-06-10T22:34:00;101339.6;;;22.2;70.4
72124;BME280;63818;37.134;-8.548;2023-06-10T22:38:46;101336.1;;;22.2;70.3
72124;BME280;63818;37.134;-8.548;2023-06-10T22:43:32;101329.4;;;22.1;70.9
72124;BME280;63818;37.134;-8.548;2023-06-10T22:48:19;101321.6;;;22.2;70.7
72124;BME280;63818;37.134;-8.548;2023-06-10T22:53:04;101318.1;;;22.2;70.7
72124;BME280;63818;37.134;-8.548;2023-06-10T22:57:50;101320.8;;;22.1;70.5
72124;BME280;63818;37.134;-8.548;2023-06-10T23:02:36;101324.3;;;22.2;70.7
72124;BME280;63818;37.134;-8.548;2023-06-10T23:07:22;101307.4;;;22.1;70.5
72124;BME280;63818;37.134;-8.548;2023-06-10T23:12:09;101312.0;;;22.1;71.0
72124;BME280;63818;37.134;-8.548;2023-06-10T23:16:55;101310.9;;;22.1;70.9
72124;BME280;63818;37.134;-8.548;2023-06-10T23:21:40;101312.8;;;22.1;70.8
72124;BME280;63818;37.134;-8.548;2023-06-10T23:26:27;101305.8;;;22.1;70.6
72124;BME280;63818;37.134;-8.548;2023-06-10T23:31:13;101314.0;;;22.0;70.8
72124;BME280;63818;37.134;-8.548;2023-06-10T23:35:59;101307.7;;;22.0;70.6
72124;BME280;63818;37.134;-8.548;2023-06-10T23:40:45;101310.8;;;22.0;70.4
72124;BME280;63818;37.134;-8.548;2023-06-10T23:45:31;101313.2;;;22.0;70.5
72124;BME280;63818;37.134;-8.548;2023-06-10T23:50:19;101313.9;;;22.0;70.6
72124;BME280;63818;37.134;-8.548;2023-06-10T23:55:05;101305.6;;;22.0;70.6
72124;BME280;63818;37.134;-8.548;2023-06-10T23:59:51;101300.9;;;21.9;70.7
